Kramer Junction, California
Current Conditions -  °F | °C
As of 1:55 AM on Wednesday 22 Oct 2014 (Local Time) from K9L2 Reporting Station
Clear Clear  
Wind Chill: 48°   Ceiling: Unl
Heat Index: 48°   Visibility: 10mi
Dew Point: 35°   Wind: 0mph
Humidity: 61%   Direction: NA
Pressure: 29.94"   Gusts: NA
Location:  35.0434°N, 117.645°W
Report Text: K9L2 220855Z AUTO 00000KT 10SM CLR 09/02 A2994 RMK AO2 SLP130 T00890017 51004 TSNO $
Loading
Personal Weather Stations






























Interactive Weather Map
Tropical Storm Tracking
New forecast layout! Learn more

10-Day Weather Forecast

Advertisements
Track Severe Weather on mobile